Time;durP1;ratioP1;P1;durP2;ratioP2;P2;SDS_P1;SDS_P2;PMS_P1;PMS_P2;Temp;Humidity;BMP_temperature;BMP_pressure;BME280_temperature;BME280_humidity;BME280_pressure;Samples;Min_cycle;Max_cycle;Signal;HPM_P1;HPM_P2
2022/03/12 00:00:29;;;;;;;;;1.00;1.00;;;;;;;;5019221;28;10700;-77
2022/03/12 00:02:57;;;;;;;;;2.00;2.00;;;;;;;;5021514;28;11430;-80
2022/03/12 00:05:27;;;;;;;;;2.00;2.00;;;;;;;;5003135;28;11748;-78
2022/03/12 00:07:55;;;;;;;;;2.25;2.25;;;;;;;;5021063;28;11516;-78
2022/03/12 00:10:23;;;;;;;;;2.00;2.00;;;;;;;;5007843;28;10799;-77
2022/03/12 00:12:51;;;;;;;;;3.75;3.50;;;;;;;;5021360;28;10686;-78
2022/03/12 00:15:18;;;;;;;;;2.00;2.00;;;;;;;;5022396;28;10792;-80
2022/03/12 00:17:46;;;;;;;;;2.00;2.00;;;;;;;;5021656;28;10920;-81
2022/03/12 00:20:16;;;;;;;;;0.00;0.00;;;;;;;;5023164;28;10762;-81
2022/03/12 00:22:47;;;;;;;;;2.00;2.00;;;;;;;;5020049;28;10857;-80
2022/03/12 00:25:18;;;;;;;;;3.00;2.00;;;;;;;;5022029;28;11729;-80
2022/03/12 00:27:47;;;;;;;;;1.75;1.75;;;;;;;;5021518;28;10867;-77
2022/03/12 00:30:21;;;;;;;;;1.50;1.50;;;;;;;;5020339;28;11007;-80
2022/03/12 00:32:48;;;;;;;;;1.75;1.75;;;;;;;;5021208;28;11951;-81
2022/03/12 00:35:16;;;;;;;;;2.00;1.00;;;;;;;;5020958;28;11692;-81
2022/03/12 00:37:46;;;;;;;;;1.00;1.00;;;;;;;;5021663;28;10924;-79
2022/03/12 00:40:15;;;;;;;;;2.00;2.00;;;;;;;;5020935;28;10818;-79
2022/03/12 00:42:43;;;;;;;;;1.00;1.00;;;;;;;;5020871;28;10974;-79
2022/03/12 00:45:12;;;;;;;;;2.75;2.00;;;;;;;;5006876;28;10777;-79
2022/03/12 00:47:39;;;;;;;;;2.25;2.00;;;;;;;;5027181;28;10609;-76
2022/03/12 00:50:07;;;;;;;;;3.00;3.00;;;;;;;;5021055;28;10815;-79
2022/03/12 00:52:34;;;;;;;;;2.50;1.75;;;;;;;;5024890;28;10775;-78
2022/03/12 00:55:03;;;;;;;;;2.75;2.75;;;;;;;;5026756;28;10883;-79
2022/03/12 00:57:31;;;;;;;;;2.00;2.00;;;;;;;;5020214;28;10805;-78
2022/03/12 00:59:58;;;;;;;;;2.25;2.25;;;;;;;;5020784;28;10922;-79
2022/03/12 01:02:26;;;;;;;;;2.25;2.00;;;;;;;;5022112;28;10642;-79
2022/03/12 01:04:53;;;;;;;;;3.25;2.00;;;;;;;;5019537;28;10882;-77
2022/03/12 01:07:21;;;;;;;;;2.25;2.25;;;;;;;;5020311;28;10835;-78
2022/03/12 01:09:49;;;;;;;;;2.75;2.75;;;;;;;;5019840;28;10885;-78
2022/03/12 01:12:18;;;;;;;;;2.00;2.00;;;;;;;;5020539;28;10789;-77
2022/03/12 01:14:45;;;;;;;;;1.50;1.50;;;;;;;;5001628;28;10802;-75
2022/03/12 01:17:12;;;;;;;;;2.25;2.25;;;;;;;;5024607;28;10886;-75
2022/03/12 01:19:40;;;;;;;;;2.00;2.00;;;;;;;;4998448;28;10829;-77
2022/03/12 01:22:08;;;;;;;;;3.50;3.50;;;;;;;;5020311;28;10877;-78
2022/03/12 01:24:37;;;;;;;;;6.00;3.00;;;;;;;;5035393;28;11596;-78
2022/03/12 01:27:04;;;;;;;;;1.00;1.00;;;;;;;;5019889;28;10863;-76
2022/03/12 01:29:33;;;;;;;;;3.00;3.00;;;;;;;;5021057;28;10792;-77
2022/03/12 01:32:01;;;;;;;;;3.50;2.00;;;;;;;;5000483;28;10812;-75
2022/03/12 01:34:29;;;;;;;;;2.00;2.00;;;;;;;;5020672;28;10759;-77
2022/03/12 01:36:57;;;;;;;;;3.50;2.00;;;;;;;;5019767;28;10846;-78
2022/03/12 01:39:24;;;;;;;;;1.25;1.00;;;;;;;;5038944;28;10777;-78
2022/03/12 01:41:53;;;;;;;;;2.25;2.25;;;;;;;;5020091;28;10834;-77
2022/03/12 01:44:22;;;;;;;;;6.00;3.00;;;;;;;;5019218;28;10952;-78
2022/03/12 01:46:51;;;;;;;;;3.50;3.50;;;;;;;;5026284;28;10924;-77
2022/03/12 01:49:20;;;;;;;;;4.00;4.00;;;;;;;;5022230;28;10926;-76
2022/03/12 01:51:49;;;;;;;;;2.25;2.25;;;;;;;;5028249;28;10904;-74
2022/03/12 01:54:20;;;;;;;;;4.25;2.00;;;;;;;;5022898;28;10839;-78
2022/03/12 01:56:47;;;;;;;;;3.50;2.00;;;;;;;;5024507;28;10849;-76
2022/03/12 01:59:14;;;;;;;;;5.25;4.00;;;;;;;;5022554;28;10838;-78
2022/03/12 02:01:42;;;;;;;;;4.50;4.50;;;;;;;;5017893;28;11014;-78
2022/03/12 02:04:10;;;;;;;;;4.50;4.50;;;;;;;;5026152;28;10909;-75
2022/03/12 02:06:41;;;;;;;;;5.50;5.50;;;;;;;;5021759;28;10845;-77
2022/03/12 02:09:14;;;;;;;;;6.25;4.50;;;;;;;;5020501;28;10827;-74
2022/03/12 02:11:43;;;;;;;;;2.50;2.50;;;;;;;;5021577;28;10916;-75
2022/03/12 02:14:12;;;;;;;;;2.25;2.25;;;;;;;;5019755;28;11002;-75
2022/03/12 02:16:44;;;;;;;;;5.25;5.25;;;;;;;;5002024;28;10915;-75
2022/03/12 02:19:12;;;;;;;;;4.50;3.00;;;;;;;;5019125;28;11009;-74
2022/03/12 02:21:44;;;;;;;;;5.25;3.50;;;;;;;;5020534;28;10982;-76
2022/03/12 02:24:14;;;;;;;;;2.25;2.25;;;;;;;;5021733;28;10983;-79
2022/03/12 02:26:42;;;;;;;;;2.25;2.25;;;;;;;;5025488;28;11191;-78
2022/03/12 02:29:12;;;;;;;;;3.00;3.00;;;;;;;;5023698;28;11516;-77
2022/03/12 02:31:41;;;;;;;;;4.50;4.50;;;;;;;;5019411;28;11026;-75
2022/03/12 02:34:09;;;;;;;;;3.00;3.00;;;;;;;;5020835;28;11082;-76
2022/03/12 02:36:36;;;;;;;;;4.50;4.50;;;;;;;;5018305;28;11163;-76
2022/03/12 02:39:04;;;;;;;;;5.25;5.25;;;;;;;;5018615;28;11253;-78
2022/03/12 02:41:34;;;;;;;;;6.75;5.25;;;;;;;;5022494;28;11070;-78
2022/03/12 02:44:01;;;;;;;;;3.00;3.00;;;;;;;;5029153;28;11167;-76
2022/03/12 02:46:32;;;;;;;;;5.75;5.75;;;;;;;;5022111;28;11180;-79
2022/03/12 02:49:00;;;;;;;;;7.00;7.00;;;;;;;;5023611;28;11445;-78
2022/03/12 02:51:27;;;;;;;;;5.25;5.25;;;;;;;;5022816;28;11519;-78
2022/03/12 02:53:56;;;;;;;;;7.00;7.00;;;;;;;;5005060;28;11208;-78
2022/03/12 02:56:24;;;;;;;;;8.50;7.00;;;;;;;;5023758;28;11469;-80
2022/03/12 02:58:54;;;;;;;;;6.00;6.00;;;;;;;;5022732;28;11466;-75
2022/03/12 03:01:26;;;;;;;;;6.75;6.25;;;;;;;;5022550;28;11458;-76
2022/03/12 03:03:53;;;;;;;;;5.00;5.00;;;;;;;;5027212;28;11472;-78
2022/03/12 03:06:22;;;;;;;;;7.00;7.00;;;;;;;;5034845;28;11170;-78
2022/03/12 03:08:50;;;;;;;;;4.00;4.00;;;;;;;;5026792;28;11463;-79
2022/03/12 03:11:19;;;;;;;;;3.00;3.00;;;;;;;;5033675;28;11560;-79
2022/03/12 03:13:48;;;;;;;;;7.25;5.75;;;;;;;;5026250;28;11395;-78
2022/03/12 03:16:21;;;;;;;;;5.00;5.00;;;;;;;;5023243;28;11435;-77
2022/03/12 03:18:52;;;;;;;;;5.25;5.25;;;;;;;;5022312;28;11533;-79
2022/03/12 03:21:20;;;;;;;;;2.75;2.75;;;;;;;;5019863;28;11502;-78
2022/03/12 03:23:47;;;;;;;;;8.25;5.00;;;;;;;;5024075;28;11450;-78
2022/03/12 03:26:16;;;;;;;;;6.25;6.25;;;;;;;;5022084;28;11426;-75
2022/03/12 03:28:44;;;;;;;;;6.00;6.00;;;;;;;;5021416;28;12055;-77
2022/03/12 03:31:11;;;;;;;;;6.75;5.25;;;;;;;;5031725;28;11334;-75
2022/03/12 03:33:40;;;;;;;;;4.00;4.00;;;;;;;;5024612;28;11479;-78
2022/03/12 03:36:07;;;;;;;;;6.75;6.75;;;;;;;;5024622;28;11528;-79
2022/03/12 03:38:35;;;;;;;;;5.25;5.25;;;;;;;;5021771;28;12172;-75
2022/03/12 03:41:02;;;;;;;;;10.25;7.00;;;;;;;;5023223;28;11420;-75
2022/03/12 03:43:29;;;;;;;;;6.75;6.75;;;;;;;;5025509;28;11413;-74
2022/03/12 03:45:58;;;;;;;;;7.00;7.00;;;;;;;;5027967;28;11427;-75
2022/03/12 03:48:26;;;;;;;;;10.25;5.50;;;;;;;;5025624;28;12115;-76
2022/03/12 03:50:55;;;;;;;;;6.00;6.00;;;;;;;;5004047;28;11432;-76
2022/03/12 03:53:25;;;;;;;;;7.00;7.00;;;;;;;;5007847;28;11439;-78
2022/03/12 03:56:00;;;;;;;;;5.50;5.50;;;;;;;;5021206;28;11475;-78
2022/03/12 03:58:30;;;;;;;;;6.00;6.00;;;;;;;;5025446;28;11515;-78
2022/03/12 04:00:59;;;;;;;;;9.50;9.50;;;;;;;;5019236;28;11389;-77
2022/03/12 04:03:31;;;;;;;;;7.00;7.00;;;;;;;;5019946;28;11744;-75
2022/03/12 04:06:01;;;;;;;;;11.75;7.25;;;;;;;;5022527;28;11389;-76
2022/03/12 04:08:28;;;;;;;;;7.50;2.75;;;;;;;;5019884;28;11453;-77
2022/03/12 04:10:56;;;;;;;;;5.00;5.00;;;;;;;;5002971;28;11437;-76
2022/03/12 04:13:23;;;;;;;;;6.50;5.25;;;;;;;;5023720;28;12366;-74
2022/03/12 04:15:53;;;;;;;;;6.25;5.00;;;;;;;;5021228;28;11096;-74
2022/03/12 04:18:22;;;;;;;;;4.50;4.50;;;;;;;;5020935;28;11440;-75
2022/03/12 04:20:50;;;;;;;;;8.50;5.50;;;;;;;;5023321;28;11260;-78
2022/03/12 04:23:21;;;;;;;;;2.00;2.00;;;;;;;;5021735;28;11442;-77
2022/03/12 04:25:48;;;;;;;;;5.75;5.75;;;;;;;;5025582;28;11420;-75
2022/03/12 04:28:15;;;;;;;;;6.75;5.00;;;;;;;;5026529;28;11414;-75
2022/03/12 04:30:43;;;;;;;;;6.25;4.50;;;;;;;;5002191;28;11347;-75
2022/03/12 04:33:11;;;;;;;;;8.75;7.00;;;;;;;;5030729;28;11542;-80
2022/03/12 04:35:39;;;;;;;;;5.50;4.75;;;;;;;;5021056;28;11428;-78
2022/03/12 04:38:09;;;;;;;;;7.50;6.00;;;;;;;;5023196;28;11160;-77
2022/03/12 04:40:40;;;;;;;;;4.50;4.50;;;;;;;;5027156;28;11547;-76
2022/03/12 04:43:09;;;;;;;;;6.75;3.00;;;;;;;;5022895;28;11181;-76
2022/03/12 04:45:36;;;;;;;;;5.00;5.00;;;;;;;;5022296;28;11233;-79
2022/03/12 04:48:04;;;;;;;;;9.75;6.00;;;;;;;;5027979;28;11244;-77
2022/03/12 04:50:32;;;;;;;;;6.25;5.75;;;;;;;;5021429;28;11434;-78
2022/03/12 04:53:01;;;;;;;;;7.75;6.00;;;;;;;;5023603;28;11439;-75
2022/03/12 04:55:30;;;;;;;;;6.00;6.00;;;;;;;;5032163;28;11417;-75
2022/03/12 04:57:59;;;;;;;;;6.50;6.00;;;;;;;;5021348;28;11400;-75
2022/03/12 05:00:28;;;;;;;;;9.50;7.00;;;;;;;;5019104;28;11899;-75
2022/03/12 05:02:57;;;;;;;;;6.00;5.00;;;;;;;;5022690;28;11425;-76
2022/03/12 05:05:27;;;;;;;;;6.00;6.00;;;;;;;;5027256;28;12281;-74
2022/03/12 05:07:59;;;;;;;;;4.50;4.50;;;;;;;;5020610;28;11497;-75
2022/03/12 05:10:28;;;;;;;;;6.75;6.75;;;;;;;;5007312;28;11378;-75
2022/03/12 05:13:00;;;;;;;;;5.00;5.00;;;;;;;;5021074;28;11554;-75
2022/03/12 05:15:37;;;;;;;;;5.00;5.00;;;;;;;;5030046;28;11486;-75
2022/03/12 05:18:07;;;;;;;;;5.00;5.00;;;;;;;;5018151;28;11509;-75
2022/03/12 05:20:36;;;;;;;;;3.00;3.00;;;;;;;;5020816;28;11429;-75
2022/03/12 05:23:06;;;;;;;;;2.50;2.50;;;;;;;;5018874;28;11449;-74
2022/03/12 05:25:33;;;;;;;;;7.50;5.25;;;;;;;;5020667;28;11468;-74
2022/03/12 05:28:01;;;;;;;;;6.00;6.00;;;;;;;;5026000;28;11394;-80
2022/03/12 05:30:29;;;;;;;;;2.25;2.25;;;;;;;;5019293;28;11511;-79
2022/03/12 05:32:57;;;;;;;;;5.25;2.75;;;;;;;;5017646;28;11431;-77
2022/03/12 05:35:24;;;;;;;;;2.00;1.75;;;;;;;;5017462;28;11449;-79
2022/03/12 05:37:53;;;;;;;;;5.00;2.25;;;;;;;;5015831;28;11459;-78
2022/03/12 05:40:21;;;;;;;;;2.00;2.00;;;;;;;;5020935;28;11454;-79
2022/03/12 05:42:49;;;;;;;;;1.50;1.50;;;;;;;;5019033;28;11461;-78
2022/03/12 05:45:18;;;;;;;;;2.25;2.25;;;;;;;;5018942;28;12307;-76
2022/03/12 05:47:49;;;;;;;;;7.50;5.00;;;;;;;;5018945;28;11406;-78
2022/03/12 05:50:19;;;;;;;;;3.50;3.00;;;;;;;;5020307;28;11410;-77
2022/03/12 05:52:49;;;;;;;;;5.50;3.00;;;;;;;;5034095;28;11412;-83
2022/03/12 05:55:19;;;;;;;;;2.50;2.00;;;;;;;;5020965;28;11430;-85
2022/03/12 05:57:49;;;;;;;;;2.50;2.50;;;;;;;;5016217;28;11415;-88
2022/03/12 06:00:18;;;;;;;;;2.25;2.25;;;;;;;;5013575;28;12203;-84
2022/03/12 06:02:50;;;;;;;;;4.75;3.00;;;;;;;;5014837;28;11395;-82
2022/03/12 06:05:18;;;;;;;;;2.50;2.50;;;;;;;;5019212;28;11417;-78
2022/03/12 06:07:46;;;;;;;;;11.25;10.00;;;;;;;;5014257;28;11427;-82
2022/03/12 06:10:16;;;;;;;;;11.50;11.00;;;;;;;;5018131;28;11510;-82
2022/03/12 06:12:44;;;;;;;;;15.00;9.00;;;;;;;;5014809;28;11489;-83
2022/03/12 06:15:13;;;;;;;;;7.25;7.25;;;;;;;;5019488;28;11448;-80
2022/03/12 06:17:40;;;;;;;;;6.25;6.25;;;;;;;;5005800;28;11513;-84
2022/03/12 06:20:12;;;;;;;;;22.00;21.50;;;;;;;;5021869;28;11529;-82
2022/03/12 06:22:39;;;;;;;;;30.00;26.50;;;;;;;;5020472;28;11608;-81
2022/03/12 06:25:09;;;;;;;;;10.00;10.00;;;;;;;;5024035;28;11553;-85
2022/03/12 06:27:37;;;;;;;;;13.00;10.75;;;;;;;;5022863;28;11516;-84
2022/03/12 06:30:07;;;;;;;;;9.75;7.00;;;;;;;;5015079;28;11631;-82
2022/03/12 06:32:35;;;;;;;;;9.00;7.25;;;;;;;;5002439;28;11484;-83
2022/03/12 06:35:02;;;;;;;;;33.25;21.00;;;;;;;;5006347;28;11607;-83
2022/03/12 06:37:32;;;;;;;;;35.25;26.25;;;;;;;;5022699;28;11498;-83
2022/03/12 06:40:00;;;;;;;;;94.67;72.00;;;;;;;;5022101;28;11528;-85
2022/03/12 06:42:29;;;;;;;;;30.25;25.25;;;;;;;;5021858;28;8862;-82
2022/03/12 06:44:57;;;;;;;;;3.50;3.50;;;;;;;;5015156;28;11543;-85
2022/03/12 06:47:29;;;;;;;;;22.50;22.50;;;;;;;;5004255;28;11423;-84
2022/03/12 06:49:58;;;;;;;;;14.00;14.00;;;;;;;;5022051;28;11487;-81
2022/03/12 06:52:25;;;;;;;;;10.00;10.00;;;;;;;;5022573;28;11511;-81
2022/03/12 06:54:54;;;;;;;;;3.00;3.00;;;;;;;;5017555;28;11525;-85
2022/03/12 06:57:22;;;;;;;;;6.00;6.00;;;;;;;;5022439;28;11462;-82
2022/03/12 06:59:50;;;;;;;;;6.00;3.00;;;;;;;;5004511;28;11424;-85
2022/03/12 07:02:17;;;;;;;;;5.50;5.00;;;;;;;;5016218;28;11408;-77
2022/03/12 07:04:45;;;;;;;;;5.50;5.50;;;;;;;;5020720;28;11877;-77
2022/03/12 07:07:12;;;;;;;;;3.00;3.00;;;;;;;;5021307;28;11536;-76
2022/03/12 07:09:41;;;;;;;;;3.00;3.00;;;;;;;;5018456;28;11476;-77
2022/03/12 07:12:11;;;;;;;;;6.00;5.25;;;;;;;;5003520;28;13327;-79
2022/03/12 07:14:39;;;;;;;;;8.75;6.50;;;;;;;;5021033;28;11494;-78
2022/03/12 07:17:06;;;;;;;;;5.00;5.00;;;;;;;;5004272;28;11419;-76
2022/03/12 07:19:35;;;;;;;;;24.25;21.75;;;;;;;;5022363;28;11431;-75
2022/03/12 07:22:03;;;;;;;;;5.75;4.25;;;;;;;;5019198;28;11474;-76
2022/03/12 07:24:30;;;;;;;;;5.00;5.00;;;;;;;;5001232;28;11437;-75
2022/03/12 07:26:58;;;;;;;;;5.50;5.50;;;;;;;;5022521;28;11391;-76
2022/03/12 07:29:29;;;;;;;;;16.50;14.00;;;;;;;;5018310;28;11499;-78
2022/03/12 07:31:57;;;;;;;;;9.00;9.00;;;;;;;;5016422;28;11628;-78
2022/03/12 07:34:24;;;;;;;;;5.00;5.00;;;;;;;;5018299;28;11400;-75
2022/03/12 07:36:56;;;;;;;;;4.00;4.00;;;;;;;;5023402;28;11503;-77
2022/03/12 07:39:26;;;;;;;;;6.25;6.25;;;;;;;;5023953;28;11417;-76
2022/03/12 07:41:54;;;;;;;;;6.25;6.25;;;;;;;;5019790;28;11413;-77
2022/03/12 07:44:22;;;;;;;;;3.00;3.00;;;;;;;;5018400;28;11457;-77
2022/03/12 07:46:51;;;;;;;;;2.00;2.00;;;;;;;;5017936;28;11513;-76
2022/03/12 07:49:18;;;;;;;;;10.00;7.50;;;;;;;;5021355;28;11421;-77
2022/03/12 07:51:47;;;;;;;;;5.50;5.50;;;;;;;;5012231;28;11432;-77
2022/03/12 07:54:15;;;;;;;;;3.50;3.50;;;;;;;;5022319;28;12027;-77
2022/03/12 07:56:42;;;;;;;;;9.00;6.75;;;;;;;;5004794;28;11381;-76
2022/03/12 07:59:10;;;;;;;;;7.25;6.00;;;;;;;;5020490;28;11464;-77
2022/03/12 08:01:40;;;;;;;;;14.50;14.50;;;;;;;;5019795;28;11361;-77
2022/03/12 08:04:09;;;;;;;;;17.00;15.00;;;;;;;;5013730;28;11485;-76
2022/03/12 08:06:36;;;;;;;;;4.50;4.50;;;;;;;;5017468;28;11473;-77
2022/03/12 08:09:05;;;;;;;;;32.75;32.75;;;;;;;;5017373;28;11422;-76
2022/03/12 08:11:34;;;;;;;;;3.00;3.00;;;;;;;;5020430;28;11621;-76
2022/03/12 08:14:17;;;;;;;;;3.00;3.00;;;;;;;;5018408;28;11074;-75
2022/03/12 08:16:45;;;;;;;;;5.25;5.00;;;;;;;;5017563;28;11070;-76
2022/03/12 08:19:14;;;;;;;;;5.50;5.25;;;;;;;;5020378;28;11164;-77
2022/03/12 08:21:42;;;;;;;;;6.00;3.00;;;;;;;;5000917;28;11159;-77
2022/03/12 08:24:12;;;;;;;;;5.00;5.00;;;;;;;;5002985;28;11058;-77
2022/03/12 08:26:41;;;;;;;;;5.25;5.25;;;;;;;;5018463;28;11995;-76
2022/03/12 08:29:09;;;;;;;;;2.00;2.00;;;;;;;;5018492;28;11114;-76
2022/03/12 08:31:37;;;;;;;;;2.00;2.00;;;;;;;;5016906;28;10886;-77
2022/03/12 08:34:04;;;;;;;;;2.00;2.00;;;;;;;;5017885;28;11228;-76
2022/03/12 08:36:36;;;;;;;;;2.00;2.00;;;;;;;;5017387;28;11020;-76
2022/03/12 08:39:04;;;;;;;;;2.00;2.00;;;;;;;;5013136;28;10947;-78
2022/03/12 08:41:34;;;;;;;;;2.50;2.50;;;;;;;;5018064;28;10781;-74
2022/03/12 08:44:02;;;;;;;;;3.00;3.00;;;;;;;;5015649;28;10873;-75
2022/03/12 08:46:29;;;;;;;;;2.00;2.00;;;;;;;;5033531;28;11092;-75
2022/03/12 08:48:56;;;;;;;;;4.00;2.00;;;;;;;;5018877;28;11008;-76
2022/03/12 08:51:24;;;;;;;;;4.00;4.00;;;;;;;;5014113;28;11017;-74
2022/03/12 08:53:52;;;;;;;;;7.00;5.00;;;;;;;;5017083;28;11003;-75
2022/03/12 08:56:21;;;;;;;;;0.00;0.00;;;;;;;;5015591;28;11127;-75
2022/03/12 08:58:49;;;;;;;;;1.00;1.00;;;;;;;;5019502;28;10857;-75
2022/03/12 09:01:18;;;;;;;;;2.50;2.50;;;;;;;;5016683;28;11922;-76
2022/03/12 09:03:45;;;;;;;;;2.50;2.50;;;;;;;;5017216;28;10928;-76
2022/03/12 09:06:13;;;;;;;;;2.00;2.00;;;;;;;;5018639;28;10818;-77
2022/03/12 09:08:40;;;;;;;;;3.00;3.00;;;;;;;;5017540;28;10955;-75
2022/03/12 09:11:10;;;;;;;;;5.00;2.50;;;;;;;;5017922;28;10973;-75
2022/03/12 09:13:37;;;;;;;;;3.00;3.00;;;;;;;;5017361;28;11154;-74
2022/03/12 09:16:05;;;;;;;;;5.00;5.00;;;;;;;;5016914;28;10863;-75
2022/03/12 09:18:33;;;;;;;;;2.00;2.00;;;;;;;;4999836;28;10964;-75
2022/03/12 09:21:00;;;;;;;;;6.00;6.00;;;;;;;;5018545;28;10862;-76
2022/03/12 09:23:27;;;;;;;;;1.25;1.25;;;;;;;;4999720;28;10991;-76
2022/03/12 09:25:54;;;;;;;;;2.50;2.50;;;;;;;;5018265;28;10782;-74
2022/03/12 09:28:24;;;;;;;;;1.50;1.50;;;;;;;;5017598;28;10722;-75
2022/03/12 09:30:52;;;;;;;;;2.50;2.00;;;;;;;;5015788;28;10776;-76
2022/03/12 09:33:20;;;;;;;;;2.00;2.00;;;;;;;;5019098;28;10828;-75
2022/03/12 09:35:48;;;;;;;;;1.00;1.00;;;;;;;;5016668;28;10794;-76
2022/03/12 09:38:16;;;;;;;;;2.00;2.00;;;;;;;;5017575;28;10703;-74
2022/03/12 09:40:45;;;;;;;;;2.25;2.25;;;;;;;;5016958;28;10683;-74
2022/03/12 09:43:13;;;;;;;;;2.00;2.00;;;;;;;;5009027;28;10770;-74
2022/03/12 09:45:45;;;;;;;;;2.00;2.00;;;;;;;;5016674;28;10788;-76
2022/03/12 09:48:13;;;;;;;;;3.00;3.00;;;;;;;;5017139;28;10631;-76
2022/03/12 09:50:40;;;;;;;;;2.75;2.75;;;;;;;;5022351;28;10549;-76
2022/03/12 09:53:08;;;;;;;;;4.50;2.50;;;;;;;;5020069;28;10766;-76
2022/03/12 09:55:35;;;;;;;;;4.50;4.50;;;;;;;;5020079;28;10588;-75
2022/03/12 09:58:03;;;;;;;;;3.00;3.00;;;;;;;;5029089;28;10621;-80
2022/03/12 10:00:30;;;;;;;;;2.00;2.00;;;;;;;;5016903;28;11125;-79
2022/03/12 10:03:00;;;;;;;;;4.75;2.50;;;;;;;;5017679;28;10431;-75
2022/03/12 10:05:28;;;;;;;;;11.00;9.50;;;;;;;;5018405;28;10415;-75
2022/03/12 10:07:55;;;;;;;;;2.00;2.00;;;;;;;;5017358;28;10590;-80
2022/03/12 10:10:23;;;;;;;;;2.25;2.25;;;;;;;;5017734;28;10431;-77
2022/03/12 10:12:51;;;;;;;;;9.00;9.00;;;;;;;;5016722;28;10317;-75
2022/03/12 10:15:19;;;;;;;;;1.50;1.50;;;;;;;;5021370;28;10615;-81
2022/03/12 10:17:48;;;;;;;;;6.00;3.50;;;;;;;;5034634;28;10385;-78
2022/03/12 10:20:17;;;;;;;;;2.50;2.25;;;;;;;;5016188;28;10404;-77
2022/03/12 10:22:46;;;;;;;;;2.00;2.00;;;;;;;;5020927;28;10319;-75
2022/03/12 10:25:14;;;;;;;;;3.75;3.75;;;;;;;;5020416;28;10196;-77
2022/03/12 10:27:42;;;;;;;;;2.00;2.00;;;;;;;;5016940;28;10979;-77
2022/03/12 10:30:11;;;;;;;;;2.00;2.00;;;;;;;;5003475;28;10151;-77
2022/03/12 10:32:44;;;;;;;;;3.00;3.00;;;;;;;;5018861;28;10365;-76
2022/03/12 10:35:14;;;;;;;;;2.25;2.25;;;;;;;;5013941;28;10277;-77
2022/03/12 10:37:43;;;;;;;;;3.50;2.00;;;;;;;;5018334;28;10341;-75
2022/03/12 10:40:12;;;;;;;;;6.00;3.50;;;;;;;;5022239;28;10263;-81
2022/03/12 10:42:47;;;;;;;;;2.75;2.75;;;;;;;;5023519;28;10185;-80
2022/03/12 10:45:15;;;;;;;;;2.00;2.00;;;;;;;;5017777;28;10118;-79
2022/03/12 10:47:45;;;;;;;;;3.00;3.00;;;;;;;;5021222;28;10117;-77
2022/03/12 10:50:15;;;;;;;;;2.75;2.00;;;;;;;;5019348;28;10966;-76
2022/03/12 10:52:49;;;;;;;;;2.00;2.00;;;;;;;;5024210;28;10111;-81
2022/03/12 10:55:20;;;;;;;;;3.00;3.00;;;;;;;;5013197;28;10288;-77
2022/03/12 10:57:59;;;;;;;;;2.00;2.00;;;;;;;;5015733;28;10034;-78
2022/03/12 11:00:37;;;;;;;;;1.25;1.25;;;;;;;;5020407;28;9980;-75
2022/03/12 11:03:08;;;;;;;;;2.00;2.00;;;;;;;;5024381;28;10161;-81
2022/03/12 11:05:37;;;;;;;;;3.00;3.00;;;;;;;;5016642;28;10047;-79
2022/03/12 11:08:16;;;;;;;;;2.25;1.00;;;;;;;;5020126;28;10122;-79
2022/03/12 11:10:52;;;;;;;;;4.75;3.00;;;;;;;;5022794;28;9959;-78
2022/03/12 11:13:26;;;;;;;;;3.00;3.00;;;;;;;;5019942;28;10088;-79
2022/03/12 11:16:12;;;;;;;;;4.50;4.50;;;;;;;;5021376;28;10049;-81
2022/03/12 11:19:01;;;;;;;;;1.25;1.25;;;;;;;;5027187;28;10091;-80
2022/03/12 11:21:35;;;;;;;;;2.00;2.00;;;;;;;;5028032;28;9895;-79
2022/03/12 11:24:06;;;;;;;;;2.75;2.75;;;;;;;;5033945;28;9839;-79
2022/03/12 11:26:48;;;;;;;;;2.25;1.00;;;;;;;;5023348;28;9858;-79
2022/03/12 11:29:16;;;;;;;;;1.00;1.00;;;;;;;;5015113;28;11355;-77
2022/03/12 11:31:46;;;;;;;;;3.00;3.00;;;;;;;;5019871;28;9586;-77
2022/03/12 11:34:20;;;;;;;;;2.00;2.00;;;;;;;;5023006;28;9792;-78
2022/03/12 11:36:52;;;;;;;;;3.00;3.00;;;;;;;;5020731;28;9964;-77
2022/03/12 11:39:28;;;;;;;;;3.00;3.00;;;;;;;;5020142;28;9986;-80
2022/03/12 11:42:04;;;;;;;;;1.25;1.25;;;;;;;;5017500;28;9924;-76
2022/03/12 11:44:34;;;;;;;;;1.00;1.00;;;;;;;;5017262;28;9981;-80
2022/03/12 11:47:03;;;;;;;;;2.00;2.00;;;;;;;;5022226;28;9783;-80
2022/03/12 11:49:32;;;;;;;;;0.00;0.00;;;;;;;;5017266;28;9712;-79
2022/03/12 11:52:00;;;;;;;;;4.00;2.00;;;;;;;;5019008;28;9639;-84
2022/03/12 11:54:30;;;;;;;;;1.00;1.00;;;;;;;;5022876;28;9787;-78
2022/03/12 11:56:59;;;;;;;;;3.50;2.00;;;;;;;;5022253;28;9731;-79
2022/03/12 11:59:27;;;;;;;;;4.75;3.25;;;;;;;;5019826;28;9810;-80
2022/03/12 12:02:05;;;;;;;;;1.50;1.50;;;;;;;;5017086;28;9858;-81
2022/03/12 12:04:35;;;;;;;;;1.50;1.00;;;;;;;;5019079;28;9790;-78
2022/03/12 12:07:06;;;;;;;;;1.00;1.00;;;;;;;;5017136;28;9871;-78
2022/03/12 12:09:35;;;;;;;;;6.00;4.00;;;;;;;;5017571;28;9758;-79
2022/03/12 12:12:13;;;;;;;;;3.00;3.00;;;;;;;;5018764;28;9885;-79
2022/03/12 12:14:41;;;;;;;;;4.00;3.00;;;;;;;;5018562;28;9879;-78
2022/03/12 12:17:10;;;;;;;;;12.00;12.00;;;;;;;;5002013;28;9887;-79
2022/03/12 12:19:37;;;;;;;;;7.50;4.00;;;;;;;;5020890;28;10088;-74
2022/03/12 12:22:07;;;;;;;;;4.00;4.00;;;;;;;;5018891;28;10720;-78
2022/03/12 12:24:39;;;;;;;;;3.75;3.75;;;;;;;;5002211;28;9814;-78
2022/03/12 12:27:08;;;;;;;;;4.00;4.00;;;;;;;;5020153;28;9788;-77
2022/03/12 12:29:46;;;;;;;;;3.00;3.00;;;;;;;;5019137;28;9653;-77
2022/03/12 12:32:15;;;;;;;;;2.00;2.00;;;;;;;;5013770;28;9579;-79
2022/03/12 12:35:01;;;;;;;;;2.00;2.00;;;;;;;;4999720;28;9561;-77
2022/03/12 12:37:59;;;;;;;;;1.00;1.00;;;;;;;;5017243;28;9612;-78
2022/03/12 12:40:32;;;;;;;;;2.00;2.00;;;;;;;;4994380;28;9559;-76
2022/03/12 12:43:02;;;;;;;;;2.00;2.00;;;;;;;;5011306;28;10139;-86
2022/03/12 12:45:33;;;;;;;;;1.25;1.25;;;;;;;;5018426;28;9589;-76
2022/03/12 12:48:14;;;;;;;;;3.50;2.00;;;;;;;;5019821;28;9418;-78
2022/03/12 12:50:42;;;;;;;;;2.50;2.50;;;;;;;;5021576;28;9473;-75
2022/03/12 12:53:12;;;;;;;;;6.50;4.00;;;;;;;;5016150;28;9696;-77
2022/03/12 12:55:41;;;;;;;;;2.00;2.00;;;;;;;;5018119;28;10021;-80
2022/03/12 12:58:09;;;;;;;;;2.00;2.00;;;;;;;;5014345;28;9759;-78
2022/03/12 13:00:38;;;;;;;;;2.00;2.00;;;;;;;;5016878;28;9558;-78
2022/03/12 13:03:19;;;;;;;;;2.00;2.00;;;;;;;;5019546;28;9628;-81
2022/03/12 13:05:58;;;;;;;;;2.75;2.00;;;;;;;;5012407;28;10507;-81
2022/03/12 13:08:28;;;;;;;;;3.50;2.00;;;;;;;;5016601;28;9660;-79
2022/03/12 13:10:57;;;;;;;;;2.00;2.00;;;;;;;;5014841;28;9585;-81
2022/03/12 13:13:26;;;;;;;;;2.75;2.00;;;;;;;;5013698;28;9635;-80
2022/03/12 13:15:55;;;;;;;;;2.00;2.00;;;;;;;;5016726;28;9644;-80
2022/03/12 13:18:41;;;;;;;;;4.00;3.00;;;;;;;;5018885;28;9740;-81
2022/03/12 13:21:27;;;;;;;;;2.00;2.00;;;;;;;;5017760;28;9800;-81
2022/03/12 13:23:55;;;;;;;;;1.00;1.00;;;;;;;;5014569;28;9715;-82
2022/03/12 13:26:26;;;;;;;;;4.00;2.00;;;;;;;;5019536;28;9636;-78
2022/03/12 13:28:56;;;;;;;;;2.00;2.00;;;;;;;;5018217;28;9725;-78
2022/03/12 13:31:31;;;;;;;;;2.75;2.75;;;;;;;;5014911;28;9724;-79
2022/03/12 13:34:05;;;;;;;;;4.25;3.00;;;;;;;;4984455;28;10094;-78
2022/03/12 13:36:34;;;;;;;;;9.00;4.75;;;;;;;;5009349;28;9894;-76
2022/03/12 13:39:03;;;;;;;;;1.00;1.00;;;;;;;;5020963;28;10498;-78
2022/03/12 13:41:32;;;;;;;;;3.00;3.00;;;;;;;;5017453;28;9862;-80
2022/03/12 13:44:00;;;;;;;;;5.25;3.75;;;;;;;;5020508;28;10020;-80
2022/03/12 13:46:29;;;;;;;;;7.00;7.00;;;;;;;;5023171;28;10196;-79
2022/03/12 13:49:06;;;;;;;;;4.00;4.00;;;;;;;;5016846;28;10127;-80
2022/03/12 13:51:34;;;;;;;;;3.00;2.25;;;;;;;;5019157;28;9928;-80
2022/03/12 13:54:06;;;;;;;;;3.75;3.00;;;;;;;;5008927;28;9954;-79
2022/03/12 13:56:38;;;;;;;;;2.75;2.75;;;;;;;;5019229;28;10021;-80
2022/03/12 13:59:10;;;;;;;;;4.00;4.00;;;;;;;;5023296;28;10067;-82
2022/03/12 14:01:39;;;;;;;;;3.75;3.75;;;;;;;;5026916;28;10079;-81
2022/03/12 14:04:08;;;;;;;;;4.00;4.00;;;;;;;;5021784;28;10160;-74
2022/03/12 14:06:40;;;;;;;;;6.00;4.00;;;;;;;;5018584;28;10091;-80
2022/03/12 14:09:10;;;;;;;;;7.50;6.50;;;;;;;;5001461;28;10059;-80
2022/03/12 14:11:41;;;;;;;;;4.50;4.50;;;;;;;;5024429;28;11116;-79
2022/03/12 14:14:10;;;;;;;;;7.25;6.00;;;;;;;;5019129;28;10135;-81
2022/03/12 14:16:40;;;;;;;;;3.75;3.75;;;;;;;;5002212;28;10250;-81
2022/03/12 14:19:08;;;;;;;;;5.50;5.50;;;;;;;;5025028;28;10255;-80
2022/03/12 14:21:37;;;;;;;;;5.00;4.50;;;;;;;;5019056;28;10321;-80
2022/03/12 14:24:13;;;;;;;;;6.00;6.00;;;;;;;;5017197;28;10320;-80
2022/03/12 14:26:47;;;;;;;;;6.75;6.75;;;;;;;;5019184;28;10333;-80
2022/03/12 14:29:15;;;;;;;;;2.50;2.50;;;;;;;;5017884;28;10338;-81
2022/03/12 14:31:43;;;;;;;;;4.00;4.00;;;;;;;;5027207;28;10360;-81
2022/03/12 14:34:14;;;;;;;;;7.50;7.00;;;;;;;;5017686;28;10525;-80
2022/03/12 14:36:43;;;;;;;;;4.25;4.25;;;;;;;;5025706;28;10516;-81
2022/03/12 14:39:13;;;;;;;;;10.75;8.50;;;;;;;;5025926;28;10508;-81
2022/03/12 14:41:41;;;;;;;;;7.00;7.00;;;;;;;;5005574;28;10408;-81
2022/03/12 14:44:13;;;;;;;;;6.00;6.00;;;;;;;;5020546;28;10330;-80
2022/03/12 14:46:45;;;;;;;;;6.00;5.50;;;;;;;;5028258;28;11194;-81
2022/03/12 14:49:27;;;;;;;;;4.25;4.25;;;;;;;;5016856;28;10506;-79
2022/03/12 14:51:57;;;;;;;;;4.25;4.25;;;;;;;;5017264;28;10521;-79
2022/03/12 14:54:27;;;;;;;;;7.00;7.00;;;;;;;;5022063;28;11605;-80
2022/03/12 14:56:58;;;;;;;;;7.25;7.25;;;;;;;;5024375;28;10684;-81